createdAt,value
2023-04-16T00:01:14.101Z,95.19
2023-04-16T00:04:15.959Z,95.71
2023-04-16T00:07:32.141Z,96.08
2023-04-16T00:10:42.127Z,96.69
2023-04-16T00:14:00.154Z,96.82
2023-04-16T00:17:08.289Z,96.74
2023-04-16T00:20:33.281Z,96.73
2023-04-16T00:23:42.113Z,96.66
2023-04-16T00:26:57.151Z,96.72
2023-04-16T00:29:58.802Z,96.91
2023-04-16T00:33:13.125Z,96.79
2023-04-16T00:36:30.121Z,96.50
2023-04-16T00:39:38.156Z,96.80
2023-04-16T00:42:46.629Z,96.38
2023-04-16T00:45:55.212Z,96.15
2023-04-16T00:49:03.962Z,95.67
2023-04-16T00:52:18.155Z,96.06
2023-04-16T00:55:20.490Z,95.68
2023-04-16T00:58:36.945Z,95.91
2023-04-16T01:01:38.575Z,95.92
2023-04-16T01:04:53.172Z,95.48
2023-04-16T01:08:05.137Z,95.58
2023-04-16T01:11:14.827Z,95.72
2023-04-16T01:14:30.149Z,95.66
2023-04-16T01:17:45.237Z,95.62
2023-04-16T01:21:00.142Z,95.69
2023-04-16T01:24:04.265Z,95.31
2023-04-16T01:27:22.156Z,95.63
2023-04-16T01:30:23.879Z,95.46
2023-04-16T01:33:38.208Z,96.07
2023-04-16T01:36:40.213Z,95.69
2023-04-16T01:39:57.230Z,95.50
2023-04-16T01:43:05.166Z,95.59
2023-04-16T01:46:25.178Z,95.65
2023-04-16T01:49:34.190Z,95.21
2023-04-16T01:52:42.902Z,95.62
2023-04-16T01:55:57.166Z,95.56
2023-04-16T01:59:05.720Z,95.59
2023-04-16T02:02:17.256Z,95.79
2023-04-16T02:05:32.161Z,96.07
2023-04-16T02:08:47.774Z,95.74
2023-04-16T02:11:56.545Z,95.71
2023-04-16T02:15:13.204Z,95.97
2023-04-16T02:18:29.195Z,95.85
2023-04-16T02:21:46.334Z,95.72
2023-04-16T02:24:54.205Z,95.42
2023-04-16T02:28:02.718Z,95.23
2023-04-16T02:31:12.487Z,95.10
2023-04-16T02:34:21.169Z,95.02
2023-04-16T02:37:36.215Z,95.04
2023-04-16T02:40:44.689Z,95.01
2023-04-16T02:43:53.196Z,95.04
2023-04-16T02:47:01.705Z,95.03
2023-04-16T02:50:10.228Z,95.03
2023-04-16T02:53:19.392Z,94.56
2023-04-16T02:56:27.178Z,94.72
2023-04-16T02:59:42.196Z,94.93
2023-04-16T03:02:57.298Z,95.36
2023-04-16T03:06:06.345Z,95.20
2023-04-16T03:09:15.198Z,95.27
2023-04-16T03:12:23.683Z,95.46
2023-04-16T03:15:32.281Z,95.61
2023-04-16T03:18:54.214Z,94.94
2023-04-16T03:21:57.009Z,94.64
2023-04-16T03:25:11.322Z,94.32
2023-04-16T03:28:26.456Z,94.13
2023-04-16T03:31:35.208Z,94.35
2023-04-16T03:34:43.931Z,94.32
2023-04-16T03:37:58.503Z,94.25
2023-04-16T03:41:00.250Z,94.18
2023-04-16T03:44:15.237Z,94.17
2023-04-16T03:47:16.900Z,94.08
2023-04-16T03:50:32.374Z,94.47
2023-04-16T03:57:08.143Z,94.31
2023-04-16T04:00:16.264Z,93.86
2023-04-16T04:03:31.361Z,93.86
2023-04-16T04:06:46.239Z,93.80
2023-04-16T04:09:55.493Z,93.63
2023-04-16T04:13:12.250Z,93.22
2023-04-16T04:16:23.257Z,93.10
2023-04-16T04:19:42.334Z,92.56
2023-04-16T04:22:57.528Z,92.16
2023-04-16T04:26:05.828Z,91.85
2023-04-16T04:29:15.339Z,91.49
2023-04-16T04:32:30.307Z,91.29
2023-04-16T04:35:38.238Z,91.43
2023-04-16T04:38:53.277Z,91.08
2023-04-16T04:41:54.975Z,91.12
2023-04-16T04:45:12.282Z,91.13
2023-04-16T04:48:21.069Z,91.63
2023-04-16T04:51:35.312Z,91.77
2023-04-16T04:54:36.971Z,91.72
2023-04-16T05:01:17.340Z,91.19
2023-04-16T05:04:25.963Z,91.21
2023-04-16T05:07:34.311Z,90.92
2023-04-16T05:14:12.007Z,90.58
2023-04-16T05:17:28.526Z,90.75
2023-04-16T05:20:43.260Z,90.84
2023-04-16T05:23:51.823Z,90.94
2023-04-16T05:27:01.241Z,91.12
2023-04-16T05:30:16.287Z,90.88
2023-04-16T05:33:24.658Z,90.47
2023-04-16T05:36:39.302Z,90.11
2023-04-16T05:39:47.920Z,90.60
2023-04-16T05:42:56.381Z,90.41
2023-04-16T05:46:04.894Z,90.29
2023-04-16T05:49:13.299Z,90.07
2023-04-16T05:52:28.282Z,89.87
2023-04-16T05:55:36.594Z,89.79
2023-04-16T05:58:51.308Z,89.51
2023-04-16T06:01:52.993Z,89.31
2023-04-16T06:05:07.366Z,89.03
2023-04-16T06:08:17.289Z,88.78
2023-04-16T06:11:25.930Z,88.63
2023-04-16T06:14:34.337Z,88.51
2023-04-16T06:17:50.588Z,88.18
2023-04-16T06:20:59.316Z,88.58
2023-04-16T06:24:14.317Z,88.37
2023-04-16T06:27:15.986Z,87.60
2023-04-16T06:30:41.153Z,87.21
2023-04-16T06:33:44.690Z,86.29
2023-04-16T06:37:00.357Z,85.71
2023-04-16T06:40:08.310Z,85.13
2023-04-16T06:43:23.347Z,84.36
2023-04-16T06:46:39.376Z,83.70
2023-04-16T06:50:07.127Z,83.28
2023-04-16T06:53:15.352Z,82.66
2023-04-16T06:56:30.617Z,82.03
2023-04-16T06:59:32.687Z,81.25
2023-04-16T07:02:48.527Z,81.01
2023-04-16T07:05:52.527Z,81.33
2023-04-16T07:09:07.384Z,80.60
2023-04-16T07:12:22.998Z,80.34
2023-04-16T07:15:30.908Z,80.16
2023-04-16T07:18:46.305Z,79.71
2023-04-16T07:22:01.678Z,79.10
2023-04-16T07:25:03.669Z,78.13
2023-04-16T07:28:18.333Z,77.84
2023-04-16T07:31:20.120Z,77.11
2023-04-16T07:34:53.152Z,77.16
2023-04-16T07:38:13.419Z,77.02
2023-04-16T07:41:23.978Z,76.08
2023-04-16T07:44:44.345Z,75.62
2023-04-16T07:47:59.429Z,75.01
2023-04-16T07:51:04.189Z,76.08
2023-04-16T07:54:19.329Z,75.64
2023-04-16T07:57:27.568Z,75.63
2023-04-16T08:00:39.613Z,75.08
2023-04-16T08:03:49.458Z,74.87
2023-04-16T08:07:00.916Z,75.12
2023-04-16T08:10:15.333Z,75.55
2023-04-16T08:13:24.163Z,75.64
2023-04-16T08:16:32.346Z,74.93
2023-04-16T08:19:55.072Z,73.03
2023-04-16T08:22:57.056Z,72.15
2023-04-16T08:26:11.372Z,71.55
2023-04-16T08:29:25.801Z,70.60
2023-04-16T08:32:40.741Z,70.88
2023-04-16T08:35:56.386Z,70.72
2023-04-16T08:39:04.904Z,70.31
2023-04-16T08:42:39.731Z,70.64
2023-04-16T08:45:43.709Z,71.13
2023-04-16T08:49:04.213Z,70.81
2023-04-16T08:52:15.397Z,70.12
2023-04-16T08:55:30.845Z,69.87
2023-04-16T08:58:39.383Z,69.06
2023-04-16T09:01:51.039Z,68.28
2023-04-16T09:05:00.464Z,67.08
2023-04-16T09:08:12.491Z,66.68
2023-04-16T09:11:30.410Z,65.38
2023-04-16T09:14:50.514Z,63.67
2023-04-16T09:18:13.400Z,64.26
2023-04-16T09:21:24.110Z,64.75
2023-04-16T09:24:36.105Z,65.56
2023-04-16T09:27:44.380Z,65.90
2023-04-16T09:31:07.945Z,66.55
2023-04-16T09:34:16.424Z,66.25
2023-04-16T09:37:27.650Z,66.69
2023-04-16T09:40:38.310Z,67.11
2023-04-16T09:44:06.422Z,67.37
2023-04-16T09:47:18.401Z,66.80
2023-04-16T09:50:30.442Z,67.94
2023-04-16T09:53:45.387Z,68.26
2023-04-16T09:56:50.172Z,67.71
2023-04-16T10:00:09.419Z,67.62
2023-04-16T10:03:17.513Z,66.26
2023-04-16T10:06:35.429Z,64.61
2023-04-16T10:09:39.935Z,63.28
2023-04-16T10:12:54.498Z,62.37
2023-04-16T10:15:56.742Z,61.93
2023-04-16T10:19:11.898Z,61.62
2023-04-16T10:22:13.869Z,60.80
2023-04-16T10:25:29.648Z,59.00
2023-04-16T10:28:31.937Z,56.87
2023-04-16T10:31:51.454Z,56.01
2023-04-16T10:35:01.100Z,52.38
2023-04-16T10:38:28.422Z,47.53
2023-04-16T10:41:39.457Z,45.57
2023-04-16T10:44:54.809Z,45.01
2023-04-16T10:48:13.723Z,42.76
2023-04-16T10:51:42.681Z,41.50
2023-04-16T10:54:59.493Z,40.36
2023-04-16T10:58:09.831Z,37.64
2023-04-16T11:01:18.075Z,36.76
2023-04-16T11:04:41.907Z,36.26
2023-04-16T11:07:56.702Z,40.06
2023-04-16T11:10:58.676Z,36.67
2023-04-16T11:14:15.473Z,32.55
2023-04-16T11:17:24.492Z,32.87
2023-04-16T11:20:47.461Z,32.51
2023-04-16T11:23:57.541Z,36.04
2023-04-16T11:27:08.095Z,35.31
2023-04-16T11:30:16.492Z,40.62
2023-04-16T11:33:31.432Z,44.30
2023-04-16T11:36:49.045Z,47.34
2023-04-16T11:39:58.476Z,47.93
2023-04-16T11:43:22.515Z,47.33
2023-04-16T11:46:39.207Z,42.32
2023-04-16T11:49:53.758Z,44.85
2023-04-16T11:53:04.470Z,50.64
2023-04-16T11:56:19.521Z,50.05
2023-04-16T11:59:26.344Z,49.25
2023-04-16T12:02:47.781Z,50.23
2023-04-16T12:05:49.548Z,49.43
2023-04-16T12:09:05.353Z,44.24
2023-04-16T12:12:32.123Z,44.33
2023-04-16T12:15:46.901Z,44.31
2023-04-16T12:19:06.515Z,46.69
2023-04-16T12:22:15.309Z,47.64
2023-04-16T12:25:24.591Z,43.72
2023-04-16T12:28:35.182Z,43.71
2023-04-16T12:31:50.534Z,44.17
2023-04-16T12:34:58.550Z,44.28
2023-04-16T12:38:07.401Z,44.58
2023-04-16T12:41:23.163Z,44.27
2023-04-16T12:44:26.433Z,44.74
2023-04-16T12:47:45.557Z,45.14
2023-04-16T12:50:54.274Z,45.74
2023-04-16T12:54:10.813Z,45.89
2023-04-16T12:57:12.483Z,44.16
2023-04-16T13:00:28.616Z,43.96
2023-04-16T13:03:37.513Z,44.13
2023-04-16T13:06:46.826Z,44.41
2023-04-16T13:10:01.508Z,43.68
2023-04-16T13:13:09.628Z,43.67
2023-04-16T13:16:24.850Z,43.40
2023-04-16T13:19:34.672Z,44.35
2023-04-16T13:22:49.549Z,44.95
2023-04-16T13:25:57.556Z,44.97
2023-04-16T13:29:06.013Z,44.39
2023-04-16T13:32:15.633Z,45.25
2023-04-16T13:35:31.551Z,44.79
2023-04-16T13:38:39.561Z,46.43
2023-04-16T13:41:54.543Z,46.46
2023-04-16T13:44:56.337Z,46.87
2023-04-16T13:48:11.841Z,46.75
2023-04-16T13:51:19.573Z,47.02
2023-04-16T13:54:31.685Z,47.12
2023-04-16T13:57:47.584Z,46.75
2023-04-16T14:01:05.608Z,47.48
2023-04-16T14:04:14.771Z,47.35
2023-04-16T14:07:29.633Z,46.90
2023-04-16T14:10:38.563Z,47.21
2023-04-16T14:13:47.266Z,47.48
2023-04-16T14:16:55.620Z,47.00
2023-04-16T14:20:19.593Z,47.50
2023-04-16T14:23:34.569Z,47.84
2023-04-16T14:26:42.590Z,48.30
2023-04-16T14:29:51.178Z,48.82
2023-04-16T14:32:59.582Z,48.21
2023-04-16T14:36:08.245Z,47.71
2023-04-16T14:39:22.552Z,47.10
2023-04-16T14:42:30.609Z,48.08
2023-04-16T14:45:45.626Z,48.77
2023-04-16T14:48:47.770Z,48.67
2023-04-16T14:52:02.675Z,47.98
2023-04-16T14:55:11.738Z,47.48
2023-04-16T14:58:21.905Z,47.99
2023-04-16T15:01:36.640Z,46.96
2023-04-16T15:04:44.641Z,47.02
2023-04-16T15:07:59.713Z,45.42
2023-04-16T15:11:01.441Z,45.72
2023-04-16T15:14:16.627Z,44.27
2023-04-16T15:17:18.397Z,44.95
2023-04-16T15:20:39.620Z,44.66
2023-04-16T15:23:54.615Z,46.16
2023-04-16T15:26:56.252Z,46.08
2023-04-16T15:30:11.949Z,46.27
2023-04-16T15:33:14.694Z,45.73
2023-04-16T15:36:29.957Z,46.08
2023-04-16T15:39:38.355Z,45.14
2023-04-16T15:42:46.690Z,45.39
2023-04-16T15:46:02.750Z,45.12
2023-04-16T15:49:19.942Z,44.76
2023-04-16T15:52:22.008Z,43.95
2023-04-16T15:55:36.646Z,43.34
2023-04-16T15:58:45.326Z,44.42
2023-04-16T16:01:54.808Z,44.06
2023-04-16T16:05:03.448Z,45.13
2023-04-16T16:08:17.672Z,45.03
2023-04-16T16:11:25.683Z,45.16
2023-04-16T16:14:41.381Z,45.42
2023-04-16T16:17:49.667Z,45.93
2023-04-16T16:21:04.994Z,45.90
2023-04-16T16:24:13.691Z,45.91
2023-04-16T16:27:22.206Z,46.53
2023-04-16T16:30:30.636Z,47.33
2023-04-16T16:33:45.784Z,46.70
2023-04-16T16:36:47.758Z,46.91
2023-04-16T16:40:02.682Z,47.36
2023-04-16T16:43:04.591Z,47.79
2023-04-16T16:46:19.706Z,47.92
2023-04-16T16:49:21.818Z,48.06
2023-04-16T16:52:36.726Z,48.52
2023-04-16T16:55:44.686Z,48.80
2023-04-16T16:58:53.408Z,48.29
2023-04-16T17:02:01.845Z,48.95
2023-04-16T17:05:17.013Z,49.62
2023-04-16T17:08:28.261Z,49.11
2023-04-16T17:11:42.666Z,49.54
2023-04-16T17:14:47.757Z,49.84
2023-04-16T17:18:03.680Z,49.55
2023-04-16T17:21:20.226Z,49.86
2023-04-16T17:24:35.134Z,50.64
2023-04-16T17:27:39.327Z,49.73
2023-04-16T17:30:58.001Z,50.59
2023-04-16T17:33:59.668Z,51.02
2023-04-16T17:37:14.689Z,51.61
2023-04-16T17:40:22.711Z,51.79
2023-04-16T17:43:37.722Z,52.12
2023-04-16T17:46:46.050Z,52.82
2023-04-16T17:50:00.742Z,53.29
2023-04-16T17:53:02.766Z,53.29
2023-04-16T17:56:19.770Z,53.63
2023-04-16T17:59:28.238Z,53.78
2023-04-16T18:02:36.797Z,53.68
2023-04-16T18:05:51.717Z,54.48
2023-04-16T18:08:59.721Z,54.20
2023-04-16T18:12:08.358Z,54.27
2023-04-16T18:15:22.716Z,54.76
2023-04-16T18:18:30.835Z,55.30
2023-04-16T18:21:52.768Z,55.03
2023-04-16T18:24:54.897Z,55.33
2023-04-16T18:28:09.770Z,56.15
2023-04-16T18:31:12.415Z,56.57
2023-04-16T18:34:26.779Z,57.49
2023-04-16T18:37:35.258Z,57.87
2023-04-16T18:40:44.071Z,58.72
2023-04-16T18:43:52.266Z,58.58
2023-04-16T18:47:01.550Z,58.95
2023-04-16T18:50:10.528Z,59.48
2023-04-16T18:53:24.961Z,59.79
2023-04-16T18:56:29.149Z,60.37
2023-04-16T18:59:43.743Z,61.67
2023-04-16T19:02:45.536Z,62.46
2023-04-16T19:06:01.735Z,62.79
2023-04-16T19:09:11.685Z,62.86
2023-04-16T19:12:19.838Z,63.40
2023-04-16T19:15:35.044Z,63.72
2023-04-16T19:18:37.865Z,63.73
2023-04-16T19:21:59.883Z,63.79
2023-04-16T19:25:16.038Z,63.71
2023-04-16T19:28:31.735Z,63.47
2023-04-16T19:31:39.798Z,63.24
2023-04-16T19:34:54.750Z,62.90
2023-04-16T19:37:56.526Z,62.32
2023-04-16T19:41:10.741Z,62.13
2023-04-16T19:44:19.281Z,61.55
2023-04-16T19:47:33.860Z,61.26
2023-04-16T19:50:44.758Z,60.94
2023-04-16T19:53:53.761Z,60.38
2023-04-16T19:57:01.785Z,59.52
2023-04-16T20:00:10.767Z,59.15
2023-04-16T20:03:26.012Z,59.09
2023-04-16T20:06:31.381Z,58.92
2023-04-16T20:09:45.803Z,58.94
2023-04-16T20:12:47.874Z,58.27
2023-04-16T20:16:02.831Z,58.09
2023-04-16T20:19:12.282Z,57.63
2023-04-16T20:22:26.850Z,58.02
2023-04-16T20:25:28.511Z,57.90
2023-04-16T20:28:42.829Z,57.90
2023-04-16T20:31:54.014Z,57.69
2023-04-16T20:35:02.386Z,56.77
2023-04-16T20:38:16.845Z,56.89
2023-04-16T20:41:19.405Z,56.75
2023-04-16T20:44:44.829Z,56.58
2023-04-16T20:47:52.826Z,56.35
2023-04-16T20:51:02.733Z,56.40
2023-04-16T20:54:10.829Z,56.50
2023-04-16T20:57:25.869Z,56.28
2023-04-16T21:00:27.601Z,56.42
2023-04-16T21:03:42.056Z,56.03
2023-04-16T21:06:43.921Z,56.03
2023-04-16T21:09:58.807Z,55.99
2023-04-16T21:13:03.699Z,55.80
2023-04-16T21:16:18.910Z,57.72
2023-04-16T21:19:27.839Z,56.90
2023-04-16T21:22:36.437Z,56.98
2023-04-16T21:25:51.556Z,56.54
2023-04-16T21:28:59.894Z,56.51
2023-04-16T21:32:15.631Z,56.90
2023-04-16T21:35:23.313Z,57.28
2023-04-16T21:38:31.803Z,58.05
2023-04-16T21:41:40.417Z,58.85
2023-04-16T21:44:49.147Z,59.22
2023-04-16T21:47:57.455Z,59.91
2023-04-16T21:51:07.043Z,59.67
2023-04-16T21:54:18.490Z,59.51
2023-04-16T21:57:32.844Z,59.77
2023-04-16T22:00:41.559Z,59.88
2023-04-16T22:03:55.926Z,59.67
2023-04-16T22:07:13.877Z,59.49
2023-04-16T22:10:15.832Z,59.09
2023-04-16T22:13:30.841Z,58.67
2023-04-16T22:16:33.138Z,58.38
2023-04-16T22:19:47.891Z,58.40
2023-04-16T22:22:56.839Z,57.80
2023-04-16T22:26:05.719Z,57.60
2023-04-16T22:29:20.896Z,57.38
2023-04-16T22:32:30.209Z,57.37
2023-04-16T22:35:38.343Z,57.12
2023-04-16T22:38:46.916Z,57.19
2023-04-16T22:42:01.899Z,56.77
2023-04-16T22:45:10.860Z,56.38
2023-04-16T22:48:25.874Z,56.37
2023-04-16T22:51:40.916Z,56.28
2023-04-16T22:54:42.668Z,56.38
2023-04-16T22:57:56.878Z,56.60
2023-04-16T23:00:58.568Z,57.20
2023-04-16T23:04:13.033Z,56.62
2023-04-16T23:07:15.090Z,56.44
2023-04-16T23:10:29.848Z,56.69
2023-04-16T23:13:38.863Z,56.99
2023-04-16T23:16:47.561Z,56.80
2023-04-16T23:20:01.939Z,57.03
2023-04-16T23:23:03.709Z,57.13
2023-04-16T23:26:17.920Z,57.16
2023-04-16T23:29:19.955Z,56.91
2023-04-16T23:32:35.982Z,56.86
2023-04-16T23:35:43.999Z,56.88
2023-04-16T23:38:52.865Z,56.63
2023-04-16T23:42:00.925Z,56.92
2023-04-16T23:45:09.830Z,57.21
2023-04-16T23:48:17.880Z,57.08
2023-04-16T23:51:32.952Z,56.81
2023-04-16T23:54:34.673Z,57.03
2023-04-16T23:57:48.941Z,57.25
